Time;durP1;ratioP1;P1;durP2;ratioP2;P2;SDS_P1;SDS_P2;PMS_P1;PMS_P2;Temp;Humidity;BMP_temperature;BMP_pressure;BME280_temperature;BME280_humidity;BME280_pressure;Samples;Min_cycle;Max_cycle;Signal;HPM_P1;HPM_P2
2021/12/16 00:06:23;;;;;;;19.17;17.47;;;8.10;99.90;;;;;;10501729;28;20235;-78
2021/12/16 00:19:26;;;;;;;19.17;17.37;;;8.00;99.90;;;;;;10498967;28;20590;-77
2021/12/16 00:33:10;;;;;;;17.57;15.97;;;8.00;99.90;;;;;;10477678;28;20209;-78
2021/12/16 00:38:14;;;;;;;14.37;13.03;;;8.00;99.90;;;;;;10459778;28;20565;-78
2021/12/16 00:43:22;;;;;;;19.40;17.50;;;8.00;99.90;;;;;;10458656;28;20742;-78
2021/12/16 00:48:36;;;;;;;19.17;17.37;;;8.00;99.90;;;;;;10458783;28;20643;-78
2021/12/16 00:59:01;;;;;;;19.03;17.23;;;8.00;99.90;;;;;;10459182;28;20189;-77
2021/12/16 01:04:26;;;;;;;21.40;17.17;;;8.00;99.90;;;;;;10486916;28;20312;-77
2021/12/16 01:10:13;;;;;;;18.53;16.80;;;8.00;99.90;;;;;;10497000;28;20187;-78
2021/12/16 01:42:26;;;;;;;18.37;16.67;;;7.90;99.90;;;;;;10484776;28;20226;-79
2021/12/16 01:47:53;;;;;;;17.23;15.63;;;7.90;99.90;;;;;;10500424;28;20216;-80
2021/12/16 01:58:13;;;;;;;17.33;15.80;;;7.90;99.90;;;;;;10501781;28;20219;-81
2021/12/16 02:03:24;;;;;;;18.93;17.17;;;7.90;99.90;;;;;;10458058;28;20316;-81
2021/12/16 02:08:31;;;;;;;18.00;16.40;;;8.00;99.90;;;;;;10460942;28;20221;-81
2021/12/16 02:30:07;;;;;;;22.37;20.17;;;8.00;99.90;;;;;;10462012;28;20234;-79
2021/12/16 02:35:28;;;;;;;20.63;18.70;;;8.00;99.90;;;;;;10503430;28;20211;-80
2021/12/16 02:40:33;;;;;;;16.73;15.17;;;8.10;99.90;;;;;;10486672;28;20629;-80
2021/12/16 02:50:51;;;;;;;18.17;16.40;;;8.10;99.90;;;;;;10464622;28;20224;-80
2021/12/16 02:55:55;;;;;;;19.77;17.97;;;8.10;99.90;;;;;;10504215;28;20652;-80
2021/12/16 03:01:04;;;;;;;19.00;17.27;;;8.10;99.90;;;;;;10487233;28;20696;-81
2021/12/16 03:06:06;;;;;;;18.47;16.73;;;8.20;99.90;;;;;;10505123;28;20208;-81
2021/12/16 03:11:22;;;;;;;19.27;17.37;;;8.20;99.90;;;;;;10504777;28;20585;-80
2021/12/16 03:16:33;;;;;;;18.27;16.57;;;8.20;99.90;;;;;;10511960;28;20180;-81
2021/12/16 03:21:41;;;;;;;17.93;16.23;;;8.20;99.90;;;;;;10507793;28;20235;-79
2021/12/16 03:37:32;;;;;;;18.20;16.40;;;8.20;99.90;;;;;;10485726;28;20215;-81
2021/12/16 03:42:40;;;;;;;18.30;16.70;;;8.20;99.90;;;;;;10505416;28;20695;-81
2021/12/16 03:47:47;;;;;;;19.70;17.80;;;8.20;99.90;;;;;;10504525;28;20212;-81
2021/12/16 03:52:51;;;;;;;18.13;16.43;;;8.20;99.90;;;;;;10497240;28;20248;-80
2021/12/16 03:57:55;;;;;;;20.47;18.47;;;8.10;99.90;;;;;;10499094;28;20220;-80
2021/12/16 04:03:02;;;;;;;17.20;15.47;;;8.20;99.90;;;;;;10481662;28;20224;-79
2021/12/16 04:08:10;;;;;;;20.03;18.07;;;8.20;99.90;;;;;;10498673;28;20715;-79
2021/12/16 04:13:25;;;;;;;19.60;17.70;;;8.20;99.90;;;;;;10482453;28;20217;-80
2021/12/16 04:18:33;;;;;;;19.73;17.63;;;8.10;99.90;;;;;;10481228;28;20283;-80
2021/12/16 04:23:35;;;;;;;18.90;17.10;;;8.10;99.90;;;;;;10496185;28;20244;-80
2021/12/16 04:28:39;;;;;;;21.27;19.17;;;8.10;99.90;;;;;;10496657;28;20219;-80
2021/12/16 04:33:42;;;;;;;22.47;20.20;;;8.10;99.90;;;;;;10498083;28;20267;-79
2021/12/16 04:38:47;;;;;;;22.50;20.20;;;8.10;99.90;;;;;;10499222;28;20189;-79
2021/12/16 04:43:54;;;;;;;21.90;19.70;;;8.10;99.90;;;;;;10498093;28;20209;-80
2021/12/16 04:48:58;;;;;;;23.70;21.30;;;8.10;99.90;;;;;;10481094;28;20220;-80
2021/12/16 04:54:09;;;;;;;22.33;20.03;;;8.00;99.90;;;;;;10497190;28;20710;-79
2021/12/16 04:59:16;;;;;;;22.23;19.93;;;8.00;99.90;;;;;;10494447;28;20189;-79
2021/12/16 05:04:23;;;;;;;24.40;21.90;;;8.00;99.90;;;;;;10489865;28;20216;-79
2021/12/16 05:10:01;;;;;;;24.03;21.53;;;8.00;99.90;;;;;;10499664;28;20208;-80
2021/12/16 05:15:01;;;;;;;24.00;21.50;;;8.00;99.90;;;;;;10496603;28;20184;-80
2021/12/16 05:20:08;;;;;;;23.73;21.37;;;7.90;99.90;;;;;;10506907;28;20220;-80
2021/12/16 05:25:20;;;;;;;26.17;21.73;;;7.90;99.90;;;;;;10502307;28;20193;-79
2021/12/16 05:30:23;;;;;;;21.27;19.10;;;8.00;99.90;;;;;;10497034;28;20224;-80
2021/12/16 05:35:27;;;;;;;23.77;20.73;;;8.00;99.90;;;;;;10506264;28;20208;-80
2021/12/16 05:40:31;;;;;;;23.07;20.37;;;8.10;99.90;;;;;;10506065;28;20215;-80
2021/12/16 05:45:46;;;;;;;22.77;20.40;;;8.10;99.90;;;;;;10503967;28;20668;-80
2021/12/16 05:50:52;;;;;;;21.70;19.40;;;8.10;99.90;;;;;;10514901;22;20224;-82
2021/12/16 05:55:56;;;;;;;20.60;18.40;;;8.20;99.90;;;;;;10508572;28;20188;-82
2021/12/16 06:01:10;;;;;;;22.00;19.70;;;8.20;99.90;;;;;;10507170;28;20282;-81
2021/12/16 06:06:13;;;;;;;23.50;20.40;;;8.20;99.90;;;;;;10505078;28;20602;-83
2021/12/16 06:11:20;;;;;;;23.53;19.00;;;8.10;99.90;;;;;;10505713;28;20218;-80
2021/12/16 06:27:11;;;;;;;25.17;19.80;;;8.20;99.90;;;;;;10503527;28;20219;-80
2021/12/16 06:32:18;;;;;;;22.70;20.27;;;8.20;99.90;;;;;;10503895;28;20284;-80
2021/12/16 06:37:20;;;;;;;23.37;20.70;;;8.20;99.90;;;;;;10484579;28;20196;-80
2021/12/16 06:42:24;;;;;;;22.47;20.07;;;8.20;99.90;;;;;;10501705;28;20216;-79
2021/12/16 06:47:37;;;;;;;24.27;19.80;;;8.20;99.90;;;;;;10499677;28;20208;-81
2021/12/16 06:52:45;;;;;;;23.83;21.20;;;8.20;99.90;;;;;;10502753;28;20220;-81
2021/12/16 06:57:53;;;;;;;26.70;22.47;;;8.20;99.90;;;;;;10504430;28;20188;-81
2021/12/16 07:02:59;;;;;;;21.43;19.13;;;8.20;99.90;;;;;;10506278;28;20217;-81
2021/12/16 07:08:02;;;;;;;22.80;20.27;;;8.20;99.90;;;;;;10494408;28;20220;-81
2021/12/16 07:13:17;;;;;;;20.73;18.13;;;8.20;99.90;;;;;;10501352;28;20240;-82
2021/12/16 07:18:20;;;;;;;24.20;19.60;;;8.20;99.90;;;;;;10500741;28;20197;-83
2021/12/16 07:23:23;;;;;;;23.43;20.50;;;8.20;99.90;;;;;;10502228;28;20217;-83
2021/12/16 07:28:26;;;;;;;25.40;19.93;;;8.30;99.90;;;;;;10502729;28;20204;-83
2021/12/16 07:33:29;;;;;;;22.60;20.30;;;8.30;99.90;;;;;;10483728;28;20700;-82
2021/12/16 07:38:31;;;;;;;21.60;19.30;;;8.30;99.90;;;;;;10501187;28;20284;-83
2021/12/16 07:43:55;;;;;;;21.13;18.77;;;8.30;99.90;;;;;;10500568;28;20311;-83
2021/12/16 07:48:59;;;;;;;20.43;18.20;;;8.30;99.90;;;;;;10501468;28;20242;-83
2021/12/16 07:54:02;;;;;;;20.90;18.60;;;8.20;99.90;;;;;;10484137;28;20243;-84
2021/12/16 07:59:04;;;;;;;20.73;18.53;;;8.20;99.90;;;;;;10500286;28;20292;-83
2021/12/16 08:04:17;;;;;;;21.63;18.30;;;8.20;99.90;;;;;;10500271;28;20244;-81
2021/12/16 08:09:20;;;;;;;21.43;18.70;;;8.30;99.90;;;;;;10500802;28;20220;-82
2021/12/16 08:14:22;;;;;;;23.10;18.97;;;8.30;99.90;;;;;;10482384;28;20319;-83
2021/12/16 08:19:25;;;;;;;18.57;16.53;;;8.40;99.90;;;;;;10499601;28;20618;-83
2021/12/16 08:24:28;;;;;;;21.63;19.00;;;8.40;99.90;;;;;;10500271;28;20258;-82
2021/12/16 08:29:31;;;;;;;20.50;17.60;;;8.50;99.90;;;;;;10502666;28;20216;-83
2021/12/16 08:34:37;;;;;;;19.57;17.47;;;8.40;99.90;;;;;;10500780;28;20315;-83
2021/12/16 08:39:39;;;;;;;18.73;16.73;;;8.50;99.90;;;;;;10484215;28;20227;-83
2021/12/16 08:44:41;;;;;;;20.47;18.23;;;8.50;99.90;;;;;;10485916;28;20238;-83
2021/12/16 08:49:46;;;;;;;20.63;18.43;;;8.60;99.90;;;;;;10504658;28;20220;-82
2021/12/16 08:54:50;;;;;;;19.40;17.30;;;8.70;99.90;;;;;;10501342;28;20228;-83
2021/12/16 08:59:52;;;;;;;17.90;16.00;;;8.70;99.90;;;;;;10499832;28;20185;-83
2021/12/16 09:04:56;;;;;;;19.27;17.00;;;8.70;99.90;;;;;;10497979;28;20696;-83
2021/12/16 09:09:58;;;;;;;20.17;17.43;;;8.80;99.90;;;;;;10482791;28;20600;-84
2021/12/16 09:15:01;;;;;;;21.00;17.67;;;8.80;99.90;;;;;;10501182;28;20208;-82
2021/12/16 09:20:08;;;;;;;19.73;17.63;;;8.90;99.90;;;;;;10483325;28;20193;-84
2021/12/16 09:25:11;;;;;;;19.23;16.63;;;8.90;99.90;;;;;;10499814;28;20220;-83
2021/12/16 09:30:16;;;;;;;21.80;16.57;;;9.00;99.90;;;;;;10482138;28;20775;-82
2021/12/16 09:35:21;;;;;;;18.00;16.10;;;9.00;99.90;;;;;;10499492;28;20209;-83
2021/12/16 09:40:26;;;;;;;21.17;17.83;;;8.90;99.90;;;;;;10496700;28;20185;-82
2021/12/16 09:45:28;;;;;;;19.27;16.77;;;8.90;99.90;;;;;;10496709;28;20254;-81
2021/12/16 09:50:33;;;;;;;20.00;17.50;;;9.00;99.90;;;;;;10499060;28;20255;-82
2021/12/16 09:55:35;;;;;;;20.13;17.13;;;9.00;99.90;;;;;;10481046;28;20676;-82
2021/12/16 10:00:38;;;;;;;20.10;17.77;;;9.00;99.90;;;;;;10495844;28;20205;-82
2021/12/16 10:05:41;;;;;;;18.70;16.70;;;9.00;99.90;;;;;;10498099;28;20196;-83
2021/12/16 10:10:43;;;;;;;18.80;16.90;;;9.00;99.90;;;;;;10496659;28;20773;-83
2021/12/16 10:21:09;;;;;;;22.07;18.67;;;9.00;99.90;;;;;;10502468;28;20208;-82
2021/12/16 10:26:16;;;;;;;19.20;16.87;;;9.10;99.90;;;;;;10488008;28;20198;-82
2021/12/16 10:31:23;;;;;;;20.43;18.27;;;9.00;99.90;;;;;;10507398;28;20282;-82
2021/12/16 10:36:29;;;;;;;23.40;20.43;;;9.10;99.90;;;;;;10513442;28;20188;-81
2021/12/16 10:41:35;;;;;;;19.47;17.30;;;9.10;99.90;;;;;;10503945;28;20213;-83
2021/12/16 10:46:41;;;;;;;19.63;17.50;;;9.10;99.90;;;;;;10487839;28;20278;-82
2021/12/16 10:51:47;;;;;;;20.17;17.00;;;9.10;99.90;;;;;;10503405;28;20306;-82
2021/12/16 10:57:09;;;;;;;20.37;18.17;;;9.10;99.90;;;;;;10486215;28;20197;-81
2021/12/16 11:02:15;;;;;;;19.37;17.40;;;9.20;99.90;;;;;;10485511;28;20228;-81
2021/12/16 11:07:23;;;;;;;19.00;16.97;;;9.20;99.90;;;;;;10501753;28;20217;-83
2021/12/16 11:12:32;;;;;;;20.90;18.07;;;9.30;99.90;;;;;;10501382;28;20612;-80
2021/12/16 11:17:37;;;;;;;18.40;16.47;;;9.30;99.90;;;;;;10500559;28;20231;-80
2021/12/16 11:22:41;;;;;;;18.10;16.00;;;9.40;99.90;;;;;;10502230;28;20220;-83
2021/12/16 11:27:46;;;;;;;19.20;17.03;;;9.50;99.90;;;;;;10501460;28;20242;-83
2021/12/16 11:32:51;;;;;;;20.60;17.30;;;9.50;99.90;;;;;;10482291;28;20282;-81
2021/12/16 11:37:56;;;;;;;22.53;18.00;;;9.60;99.90;;;;;;10498665;28;20643;-81
2021/12/16 11:43:01;;;;;;;20.67;17.63;;;9.60;99.90;;;;;;10500508;28;20560;-82
2021/12/16 11:48:04;;;;;;;20.77;18.40;;;9.60;99.90;;;;;;10501409;28;20236;-81
2021/12/16 11:53:10;;;;;;;21.40;18.07;;;9.70;99.90;;;;;;10504145;22;20228;-78
2021/12/16 11:58:12;;;;;;;20.40;17.70;;;9.70;99.90;;;;;;10494136;28;20184;-78
2021/12/16 12:03:15;;;;;;;19.67;17.57;;;9.70;99.90;;;;;;10495837;28;20303;-78
2021/12/16 12:08:23;;;;;;;19.50;17.40;;;9.80;99.90;;;;;;10495602;28;20591;-78
2021/12/16 12:13:28;;;;;;;20.90;18.00;;;9.80;99.90;;;;;;10495334;28;20213;-77
2021/12/16 12:18:36;;;;;;;20.60;17.17;;;9.80;99.90;;;;;;10492516;28;20207;-77
2021/12/16 12:23:40;;;;;;;24.50;19.63;;;9.80;99.90;;;;;;10493193;28;20208;-77
2021/12/16 12:28:42;;;;;;;23.03;19.33;;;9.80;99.90;;;;;;10492753;28;20246;-77
2021/12/16 12:33:44;;;;;;;20.30;18.10;;;9.90;99.90;;;;;;10494313;28;20576;-77
2021/12/16 12:38:48;;;;;;;18.13;16.10;;;9.90;99.90;;;;;;10493888;28;20193;-78
2021/12/16 12:43:51;;;;;;;18.87;15.83;;;9.90;99.90;;;;;;10493040;28;20759;-77
2021/12/16 12:48:55;;;;;;;20.73;18.53;;;10.00;99.90;;;;;;10492513;28;20208;-77
2021/12/16 12:53:58;;;;;;;19.43;17.27;;;9.90;99.90;;;;;;10493334;28;20235;-77
2021/12/16 12:59:04;;;;;;;20.23;17.90;;;9.90;99.90;;;;;;10490089;28;20227;-78
2021/12/16 13:04:10;;;;;;;17.17;15.10;;;9.90;99.90;;;;;;10493526;28;20223;-78
2021/12/16 13:09:26;;;;;;;18.67;15.00;;;9.90;99.90;;;;;;10493940;28;20212;-78
2021/12/16 13:14:46;;;;;;;19.03;15.60;;;9.90;99.90;;;;;;10494656;28;20277;-78
2021/12/16 13:26:05;;;;;;;19.50;17.50;;;9.90;99.90;;;;;;10491261;28;20216;-76
2021/12/16 13:31:33;;;;;;;20.50;17.90;;;10.00;99.90;;;;;;10490015;28;20236;-78
2021/12/16 13:36:43;;;;;;;19.83;17.73;;;10.00;99.90;;;;;;10489704;28;20205;-77
2021/12/16 13:41:57;;;;;;;23.97;18.23;;;10.00;99.90;;;;;;10472829;28;20213;-77
2021/12/16 13:47:08;;;;;;;21.07;17.97;;;10.10;99.90;;;;;;10490719;28;20208;-78
2021/12/16 14:03:46;;;;;;;20.50;17.00;;;10.10;99.90;;;;;;10476153;28;20302;-77
2021/12/16 14:08:52;;;;;;;18.77;16.77;;;10.00;99.90;;;;;;10498395;28;20307;-77
2021/12/16 14:25:02;;;;;;;18.03;15.20;;;9.90;99.90;;;;;;10499174;28;20687;-77
2021/12/16 14:35:42;;;;;;;18.37;16.47;;;9.90;99.90;;;;;;10457122;28;20221;-77
2021/12/16 14:41:04;;;;;;;18.17;16.07;;;9.80;99.90;;;;;;10456819;28;20653;-77
2021/12/16 14:46:10;;;;;;;21.77;19.43;;;9.70;99.90;;;;;;10458457;28;20189;-77
2021/12/16 14:51:13;;;;;;;20.50;18.40;;;9.70;99.90;;;;;;10457914;28;20684;-77
2021/12/16 14:56:20;;;;;;;18.77;16.77;;;9.70;99.90;;;;;;10456922;28;20220;-78
2021/12/16 15:01:27;;;;;;;19.33;16.23;;;9.70;99.90;;;;;;10467585;28;20699;-77
2021/12/16 15:06:38;;;;;;;16.67;15.07;;;9.60;99.90;;;;;;10498573;28;20227;-76
2021/12/16 15:11:54;;;;;;;17.80;15.73;;;9.60;99.90;;;;;;10480626;28;20220;-76
2021/12/16 15:17:06;;;;;;;21.00;18.80;;;9.50;99.90;;;;;;10497918;28;20184;-77
2021/12/16 15:43:33;;;;;;;20.43;17.17;;;9.00;99.90;;;;;;10497451;28;20209;-78
2021/12/16 15:48:36;;;;;;;33.40;28.07;;;8.90;99.90;;;;;;10496811;28;20204;-78
2021/12/16 15:53:41;;;;;;;18.60;16.63;;;8.80;99.90;;;;;;10496784;28;20679;-77
2021/12/16 15:58:45;;;;;;;16.70;14.93;;;8.70;99.90;;;;;;10480108;28;20189;-77
2021/12/16 16:03:49;;;;;;;22.60;19.93;;;8.60;99.90;;;;;;10495539;28;20224;-77
2021/12/16 16:08:55;;;;;;;20.13;17.33;;;8.50;99.90;;;;;;10494852;28;20289;-77
2021/12/16 16:14:02;;;;;;;17.73;15.90;;;8.40;99.90;;;;;;10495658;28;20216;-77
2021/12/16 16:19:08;;;;;;;22.00;18.50;;;8.40;99.90;;;;;;10493200;28;20573;-77
2021/12/16 16:24:16;;;;;;;17.67;15.00;;;8.20;99.90;;;;;;10497993;28;20212;-79
2021/12/16 16:29:21;;;;;;;17.80;16.00;;;8.10;99.90;;;;;;10502597;28;20215;-80
2021/12/16 16:34:26;;;;;;;21.50;19.33;;;8.00;99.90;;;;;;10504457;28;20224;-78
2021/12/16 16:39:31;;;;;;;19.47;16.90;;;8.00;99.90;;;;;;10503138;28;20189;-79
2021/12/16 16:44:34;;;;;;;17.87;16.07;;;8.00;99.90;;;;;;10499492;28;20212;-76
2021/12/16 16:49:48;;;;;;;16.90;15.20;;;8.00;99.90;;;;;;10501019;28;20221;-79
2021/12/16 16:54:53;;;;;;;19.00;15.70;;;8.00;99.90;;;;;;10501679;28;20226;-78
2021/12/16 16:59:58;;;;;;;18.80;15.30;;;8.00;99.90;;;;;;10501578;28;20197;-78
2021/12/16 17:05:06;;;;;;;18.50;16.50;;;8.00;99.90;;;;;;10503875;28;20220;-78
2021/12/16 17:10:28;;;;;;;17.50;14.97;;;8.00;99.90;;;;;;10503737;28;20307;-78
2021/12/16 17:15:38;;;;;;;17.50;15.70;;;7.90;99.90;;;;;;10504916;28;20227;-79
2021/12/16 17:20:41;;;;;;;18.20;16.07;;;7.90;99.90;;;;;;10503887;28;20220;-79
2021/12/16 17:25:43;;;;;;;18.33;15.90;;;7.80;99.90;;;;;;10501710;28;20226;-79
2021/12/16 17:30:47;;;;;;;17.13;15.43;;;7.80;99.90;;;;;;10506921;28;20671;-77
2021/12/16 17:35:51;;;;;;;16.63;14.90;;;7.80;99.90;;;;;;10511382;28;20559;-79
2021/12/16 17:40:58;;;;;;;21.00;18.90;;;7.80;99.90;;;;;;10512138;28;20609;-79
2021/12/16 17:46:05;;;;;;;38.97;32.60;;;7.70;99.90;;;;;;10493325;28;20267;-79
2021/12/16 17:51:11;;;;;;;26.03;23.30;;;7.60;99.90;;;;;;10511996;28;20227;-80
2021/12/16 17:56:14;;;;;;;15.80;14.20;;;7.60;99.90;;;;;;10490006;22;20640;-81
2021/12/16 18:01:21;;;;;;;17.10;15.50;;;7.50;99.90;;;;;;10466578;28;20310;-81
2021/12/16 18:06:28;;;;;;;16.03;14.30;;;7.50;99.90;;;;;;10463323;28;20665;-83
2021/12/16 18:11:34;;;;;;;20.43;17.70;;;7.40;99.90;;;;;;10477397;28;20229;-83
2021/12/16 18:16:48;;;;;;;17.37;15.53;;;7.30;99.90;;;;;;10472249;28;20250;-82
2021/12/16 18:21:55;;;;;;;16.30;14.70;;;7.30;99.90;;;;;;10466575;28;20602;-82
2021/12/16 18:26:57;;;;;;;18.13;16.33;;;7.20;99.90;;;;;;10447826;28;20208;-83
2021/12/16 18:31:59;;;;;;;19.03;17.10;;;7.20;99.90;;;;;;10464768;28;20221;-83
2021/12/16 18:37:09;;;;;;;14.43;13.00;;;7.10;99.90;;;;;;10448205;28;20297;-83
2021/12/16 18:42:17;;;;;;;15.57;14.07;;;7.10;99.90;;;;;;10465172;28;20209;-82
2021/12/16 18:47:28;;;;;;;15.50;13.90;;;7.00;99.90;;;;;;10450465;28;20631;-83
2021/12/16 18:52:48;;;;;;;14.23;12.93;;;6.90;99.90;;;;;;10457380;28;20708;-82
2021/12/16 18:57:51;;;;;;;13.87;12.47;;;6.90;99.90;;;;;;10460545;28;20687;-81
2021/12/16 19:02:53;;;;;;;14.37;12.80;;;6.80;99.90;;;;;;10458561;28;20270;-83
2021/12/16 19:07:57;;;;;;;15.20;13.60;;;6.80;99.90;;;;;;10445006;28;20198;-82
2021/12/16 19:13:08;;;;;;;19.33;17.43;;;6.70;99.90;;;;;;10441999;28;20225;-83
2021/12/16 19:18:10;;;;;;;16.20;14.60;;;6.70;99.90;;;;;;10442521;28;20197;-83
2021/12/16 19:23:15;;;;;;;15.27;13.27;;;6.70;99.90;;;;;;10459177;28;20217;-84
2021/12/16 19:28:18;;;;;;;19.37;17.00;;;6.60;99.90;;;;;;10441356;28;20206;-84
2021/12/16 19:33:22;;;;;;;15.57;13.97;;;6.70;99.90;;;;;;10456289;28;20727;-82
2021/12/16 19:38:26;;;;;;;16.07;13.27;;;6.60;99.90;;;;;;10457366;28;20276;-83
2021/12/16 19:43:29;;;;;;;22.23;19.93;;;6.50;99.90;;;;;;10456982;28;20252;-83
2021/12/16 19:48:31;;;;;;;15.30;13.67;;;6.50;99.90;;;;;;10438410;28;20225;-84
2021/12/16 19:53:39;;;;;;;16.87;15.30;;;6.50;99.90;;;;;;10461624;28;20224;-84
2021/12/16 19:58:42;;;;;;;10.73;9.83;;;6.50;99.90;;;;;;10460219;28;20217;-85
2021/12/16 20:03:49;;;;;;;10.47;9.57;;;6.50;99.90;;;;;;10438499;28;20715;-84
2021/12/16 20:08:53;;;;;;;8.60;7.80;;;6.50;99.90;;;;;;10439395;28;20632;-83
2021/12/16 20:13:56;;;;;;;9.90;9.00;;;6.40;99.90;;;;;;10449380;28;20312;-85
2021/12/16 20:19:04;;;;;;;9.23;8.43;;;6.40;99.90;;;;;;10448035;28;20186;-83
2021/12/16 20:24:12;;;;;;;9.43;8.53;;;6.40;99.90;;;;;;10452980;28;20589;-83
2021/12/16 20:29:17;;;;;;;10.30;9.40;;;6.30;99.90;;;;;;10445991;28;20208;-83
2021/12/16 20:34:23;;;;;;;10.50;9.50;;;6.30;99.90;;;;;;10462916;28;20248;-81
2021/12/16 20:39:36;;;;;;;9.30;8.43;;;6.30;99.90;;;;;;10464223;28;20225;-83
2021/12/16 20:44:42;;;;;;;12.57;11.37;;;6.30;99.90;;;;;;10447538;28;20221;-82
2021/12/16 20:49:54;;;;;;;12.57;11.37;;;6.20;99.90;;;;;;10464394;28;20286;-83
2021/12/16 20:55:01;;;;;;;11.63;10.60;;;6.20;99.90;;;;;;10449119;28;20252;-82
2021/12/16 21:00:05;;;;;;;12.60;11.40;;;6.20;99.90;;;;;;10454588;28;20189;-81
2021/12/16 21:05:11;;;;;;;13.93;12.63;;;6.20;99.90;;;;;;10456381;28;20697;-85
2021/12/16 21:10:17;;;;;;;14.97;13.57;;;6.20;99.90;;;;;;10455664;28;20258;-81
2021/12/16 21:15:26;;;;;;;12.63;11.30;;;6.20;99.90;;;;;;10455352;28;20221;-81
2021/12/16 21:20:32;;;;;;;16.13;10.83;;;6.10;99.90;;;;;;10436130;28;20291;-82
2021/12/16 21:25:38;;;;;;;14.17;12.77;;;6.10;99.90;;;;;;10454911;28;20224;-82
2021/12/16 21:30:43;;;;;;;15.83;14.27;;;6.10;99.90;;;;;;10453035;28;20919;-82
2021/12/16 21:35:46;;;;;;;13.73;12.33;;;6.10;99.90;;;;;;10443292;28;20221;-81
2021/12/16 21:40:50;;;;;;;15.57;14.07;;;6.10;99.90;;;;;;10450975;28;20852;-82
2021/12/16 21:45:53;;;;;;;16.90;15.20;;;6.10;99.90;;;;;;10461475;28;20652;-82
2021/12/16 21:50:55;;;;;;;16.60;14.90;;;6.10;99.90;;;;;;10455965;28;20231;-81
2021/12/16 21:56:06;;;;;;;15.23;13.73;;;6.10;99.90;;;;;;10487131;28;20250;-79
2021/12/16 22:01:14;;;;;;;15.90;13.80;;;6.20;99.90;;;;;;10464564;28;20208;-80
2021/12/16 22:06:16;;;;;;;18.33;16.43;;;6.30;99.90;;;;;;10444070;28;20219;-80
2021/12/16 22:11:20;;;;;;;19.00;17.03;;;6.30;99.90;;;;;;10453698;28;20236;-79
2021/12/16 22:16:27;;;;;;;18.93;17.03;;;6.50;99.90;;;;;;10457199;28;20247;-78
2021/12/16 22:21:32;;;;;;;21.93;19.73;;;6.60;99.90;;;;;;10443518;28;20623;-79
2021/12/16 22:26:37;;;;;;;18.43;16.27;;;6.60;99.90;;;;;;10460160;28;20201;-80
2021/12/16 22:31:47;;;;;;;17.07;15.43;;;6.70;99.90;;;;;;10460761;28;20217;-83
2021/12/16 22:36:53;;;;;;;16.80;15.20;;;6.80;99.90;;;;;;10457871;28;20197;-82
2021/12/16 22:41:59;;;;;;;19.93;17.67;;;6.90;99.90;;;;;;10458218;28;20736;-82
2021/12/16 22:47:03;;;;;;;18.03;16.10;;;6.90;99.90;;;;;;10442604;28;20299;-83
2021/12/16 22:52:07;;;;;;;17.80;16.00;;;7.00;99.90;;;;;;10442630;28;20213;-81
2021/12/16 22:57:11;;;;;;;17.93;16.10;;;7.10;99.90;;;;;;10459994;28;20228;-79
2021/12/16 23:02:17;;;;;;;17.70;15.90;;;7.10;99.90;;;;;;10460351;28;20213;-82
2021/12/16 23:07:19;;;;;;;20.30;16.73;;;7.20;99.90;;;;;;10462645;28;20580;-82
2021/12/16 23:12:23;;;;;;;18.60;16.60;;;7.20;99.90;;;;;;10464462;28;20245;-82
2021/12/16 23:17:44;;;;;;;18.87;17.07;;;7.30;99.90;;;;;;10471496;28;20228;-82
2021/12/16 23:22:56;;;;;;;18.50;16.30;;;7.30;99.90;;;;;;10463357;28;20217;-81
2021/12/16 23:28:04;;;;;;;18.47;16.60;;;7.30;99.90;;;;;;10462950;28;20664;-82
2021/12/16 23:33:06;;;;;;;17.20;15.40;;;7.40;99.90;;;;;;10468708;28;20266;-82
2021/12/16 23:38:23;;;;;;;18.27;16.37;;;7.40;99.90;;;;;;10466887;28;20591;-82
2021/12/16 23:54:46;;;;;;;18.50;16.60;;;7.50;99.90;;;;;;10500434;22;20221;-77
2021/12/16 23:59:49;;;;;;;17.43;15.70;;;7.50;99.90;;;;;;10505781;28;20216;-78
